createdAt,value
2018-06-17T00:00:57.254Z,3.37
2018-06-17T00:02:00.871Z,3.70
2018-06-17T00:03:04.300Z,4.22
2018-06-17T00:04:07.411Z,4.03
2018-06-17T00:05:11.867Z,4.20
2018-06-17T00:06:16.227Z,4.10
2018-06-17T00:07:19.627Z,3.70
2018-06-17T00:08:23.007Z,4.20
2018-06-17T00:09:26.395Z,4.80
2018-06-17T00:10:31.163Z,4.33
2018-06-17T00:11:34.608Z,4.33
2018-06-17T00:12:38.003Z,4.00
2018-06-17T00:13:41.379Z,4.30
2018-06-17T00:14:44.774Z,4.22
2018-06-17T00:15:49.132Z,3.85
2018-06-17T00:16:52.243Z,4.10
2018-06-17T00:17:55.631Z,4.33
2018-06-17T00:18:59.024Z,4.58
2018-06-17T00:20:02.808Z,4.45
2018-06-17T00:21:07.526Z,4.00
2018-06-17T00:22:10.943Z,3.87
2018-06-17T00:23:14.319Z,4.05
2018-06-17T00:24:17.709Z,4.60
2018-06-17T00:25:22.162Z,3.92
2018-06-17T00:26:25.903Z,4.50
2018-06-17T00:27:29.329Z,4.80
2018-06-17T00:28:32.719Z,4.17
2018-06-17T00:29:36.115Z,4.60
2018-06-17T00:30:40.597Z,4.40
2018-06-17T00:31:43.723Z,4.20
2018-06-17T00:32:46.818Z,3.50
2018-06-17T00:33:50.197Z,3.87
2018-06-17T00:34:53.581Z,3.85
2018-06-17T00:35:58.159Z,3.98
2018-06-17T00:37:01.243Z,3.92
2018-06-17T00:38:04.791Z,3.90
2018-06-17T00:39:10.327Z,3.70
2018-06-17T00:40:14.772Z,4.20
2018-06-17T00:41:20.058Z,3.98
2018-06-17T00:42:23.465Z,3.45
2018-06-17T00:43:26.876Z,3.90
2018-06-17T00:44:30.266Z,3.98
2018-06-17T00:45:34.818Z,3.40
2018-06-17T00:46:38.244Z,4.03
2018-06-17T00:47:41.629Z,3.92
2018-06-17T00:48:45.328Z,3.77
2018-06-17T00:49:48.731Z,3.52
2018-06-17T00:50:53.272Z,3.70
2018-06-17T00:51:56.899Z,3.62
2018-06-17T00:53:00.283Z,3.83
2018-06-17T00:54:03.681Z,3.42
2018-06-17T00:55:07.619Z,3.90
2018-06-17T00:56:11.552Z,3.65
2018-06-17T00:57:26.343Z,3.95
2018-06-17T00:58:29.741Z,3.92
2018-06-17T00:59:33.139Z,4.05
2018-06-17T01:00:38.138Z,3.77
2018-06-17T01:01:41.241Z,3.45
2018-06-17T01:02:44.706Z,3.70
2018-06-17T01:03:48.087Z,3.72
2018-06-17T01:04:51.479Z,4.33
2018-06-17T01:05:55.882Z,4.42
2018-06-17T01:06:58.991Z,3.55
2018-06-17T01:08:02.063Z,3.75
2018-06-17T01:09:06.175Z,3.55
2018-06-17T01:10:10.510Z,3.67
2018-06-17T01:11:15.069Z,3.50
2018-06-17T01:12:18.499Z,4.37
2018-06-17T01:13:21.935Z,3.98
2018-06-17T01:14:25.316Z,3.98
2018-06-17T01:15:29.801Z,4.15
2018-06-17T01:16:33.211Z,3.77
2018-06-17T01:17:37.005Z,3.42
2018-06-17T01:18:40.387Z,4.05
2018-06-17T01:19:43.791Z,3.33
2018-06-17T01:20:48.259Z,3.55
2018-06-17T01:21:51.651Z,4.00
2018-06-17T01:22:55.049Z,3.77
2018-06-17T01:23:58.432Z,3.80
2018-06-17T01:25:01.852Z,3.27
2018-06-17T01:26:08.396Z,3.83
2018-06-17T01:27:11.796Z,3.55
2018-06-17T01:28:15.179Z,3.83
2018-06-17T01:29:18.571Z,3.72
2018-06-17T01:30:23.348Z,3.60
2018-06-17T01:31:27.748Z,3.20
2018-06-17T01:32:31.123Z,3.47
2018-06-17T01:33:34.655Z,3.52
2018-06-17T01:34:38.091Z,3.30
2018-06-17T01:35:42.477Z,3.58
2018-06-17T01:36:45.621Z,3.37
2018-06-17T01:37:49.003Z,3.27
2018-06-17T01:38:52.395Z,3.42
2018-06-17T01:39:55.795Z,3.75
2018-06-17T01:41:00.288Z,3.40
2018-06-17T01:42:03.799Z,3.40
2018-06-17T01:43:07.179Z,3.30
2018-06-17T01:44:10.571Z,3.42
2018-06-17T01:45:16.002Z,3.72
2018-06-17T01:46:19.758Z,3.80
2018-06-17T01:47:23.187Z,3.50
2018-06-17T01:48:26.588Z,3.67
2018-06-17T01:49:30.008Z,3.27
2018-06-17T01:50:34.387Z,4.15
2018-06-17T01:51:37.796Z,3.52
2018-06-17T01:52:41.192Z,3.40
2018-06-17T01:53:44.564Z,3.27
2018-06-17T01:54:47.939Z,3.20
2018-06-17T01:55:51.691Z,3.50
2018-06-17T01:56:55.141Z,3.35
2018-06-17T01:57:58.556Z,3.35
2018-06-17T01:59:01.948Z,3.70
2018-06-17T02:00:06.727Z,3.45
2018-06-17T02:01:11.109Z,3.40
2018-06-17T02:02:14.199Z,3.47
2018-06-17T02:03:22.687Z,3.67
2018-06-17T02:04:31.600Z,3.35
2018-06-17T02:05:41.148Z,3.40
2018-06-17T02:06:49.935Z,3.20
2018-06-17T02:07:58.730Z,3.52
2018-06-17T02:09:07.467Z,3.50
2018-06-17T02:10:17.153Z,3.47
2018-06-17T02:11:27.527Z,3.33
2018-06-17T02:12:30.936Z,3.10
2018-06-17T02:13:34.319Z,3.50
2018-06-17T02:14:43.133Z,4.15
2018-06-17T02:15:47.690Z,3.60
2018-06-17T02:16:51.099Z,3.80
2018-06-17T02:17:54.515Z,3.33
2018-06-17T02:18:57.908Z,3.70
2018-06-17T02:20:01.334Z,3.90
2018-06-17T02:21:05.868Z,3.40
2018-06-17T02:22:09.291Z,3.50
2018-06-17T02:23:12.663Z,3.55
2018-06-17T02:24:16.243Z,3.15
2018-06-17T02:25:20.657Z,3.72
2018-06-17T02:26:24.803Z,3.30
2018-06-17T02:27:28.251Z,3.30
2018-06-17T02:28:31.631Z,3.10
2018-06-17T02:29:35.036Z,3.22
2018-06-17T02:30:40.313Z,3.50
2018-06-17T02:31:43.709Z,3.50
2018-06-17T02:32:47.104Z,3.15
2018-06-17T02:33:50.480Z,3.20
2018-06-17T02:34:53.862Z,3.40
2018-06-17T02:35:58.369Z,2.80
2018-06-17T02:37:01.781Z,3.42
2018-06-17T02:38:05.192Z,3.27
2018-06-17T02:39:09.388Z,3.17
2018-06-17T02:40:13.908Z,3.10
2018-06-17T02:41:18.336Z,3.00
2018-06-17T02:42:21.735Z,3.22
2018-06-17T02:43:24.811Z,3.25
2018-06-17T02:44:27.890Z,3.55
2018-06-17T02:45:37.969Z,3.40
2018-06-17T02:46:46.941Z,3.37
2018-06-17T02:47:55.832Z,3.20
2018-06-17T02:49:04.627Z,3.15
2018-06-17T02:50:14.037Z,3.67
2018-06-17T02:51:23.446Z,3.33
2018-06-17T02:52:32.355Z,3.22
2018-06-17T02:53:40.863Z,3.10
2018-06-17T02:54:45.043Z,2.90
2018-06-17T02:55:49.360Z,3.33
2018-06-17T02:56:52.788Z,3.30
2018-06-17T02:57:56.172Z,3.42
2018-06-17T02:58:59.612Z,3.27
2018-06-17T03:00:03.460Z,3.02
2018-06-17T03:01:08.042Z,3.55
2018-06-17T03:02:11.807Z,3.20
2018-06-17T03:03:15.220Z,3.27
2018-06-17T03:04:18.298Z,3.37
2018-06-17T03:05:22.179Z,3.52
2018-06-17T03:06:26.503Z,3.50
2018-06-17T03:07:29.948Z,2.87
2018-06-17T03:08:33.337Z,3.37
2018-06-17T03:09:36.720Z,3.27
2018-06-17T03:10:41.142Z,2.80
2018-06-17T03:11:44.251Z,3.08
2018-06-17T03:12:47.363Z,3.30
2018-06-17T03:13:50.755Z,3.10
2018-06-17T03:14:54.180Z,3.60
2018-06-17T03:15:58.645Z,3.00
2018-06-17T03:17:02.093Z,3.30
2018-06-17T03:18:05.504Z,2.98
2018-06-17T03:19:08.923Z,2.92
2018-06-17T03:20:13.464Z,2.95
2018-06-17T03:21:17.887Z,2.83
2018-06-17T03:22:20.983Z,2.92
2018-06-17T03:23:24.084Z,3.12
2018-06-17T03:24:32.827Z,3.00
2018-06-17T03:25:42.314Z,3.27
2018-06-17T03:26:51.204Z,2.98
2018-06-17T03:27:59.771Z,3.08
2018-06-17T03:29:08.484Z,3.25
2018-06-17T03:30:17.876Z,3.00
2018-06-17T03:31:22.419Z,3.45
2018-06-17T03:32:31.283Z,3.25
2018-06-17T03:33:39.949Z,3.67
2018-06-17T03:34:43.319Z,3.00
2018-06-17T03:36:18.744Z,3.00
2018-06-17T03:37:22.148Z,2.92
2018-06-17T03:38:25.747Z,3.65
2018-06-17T03:39:29.135Z,3.00
2018-06-17T03:40:33.574Z,2.70
2018-06-17T03:41:36.996Z,3.33
2018-06-17T03:42:40.372Z,2.92
2018-06-17T03:43:43.776Z,2.80
2018-06-17T03:44:47.151Z,2.77
2018-06-17T03:45:51.605Z,2.72
2018-06-17T03:46:54.718Z,3.35
2018-06-17T03:47:57.795Z,3.02
2018-06-17T03:49:00.893Z,3.10
2018-06-17T03:50:05.331Z,3.50
2018-06-17T03:51:09.791Z,3.08
2018-06-17T03:52:12.895Z,2.87
2018-06-17T03:53:16.014Z,2.80
2018-06-17T03:54:19.412Z,2.75
2018-06-17T03:55:24.723Z,3.00
2018-06-17T03:56:28.909Z,2.90
2018-06-17T03:57:32.587Z,2.75
2018-06-17T03:58:35.972Z,2.80
2018-06-17T03:59:39.363Z,3.10
2018-06-17T04:00:43.784Z,3.00
2018-06-17T04:01:47.175Z,2.40
2018-06-17T04:02:50.543Z,2.60
2018-06-17T04:03:53.941Z,2.77
2018-06-17T04:05:02.861Z,2.70
2018-06-17T04:06:07.421Z,2.60
2018-06-17T04:07:10.511Z,2.25
2018-06-17T04:08:13.893Z,2.80
2018-06-17T04:09:17.299Z,2.80
2018-06-17T04:10:21.218Z,2.60
2018-06-17T04:11:25.631Z,2.92
2018-06-17T04:12:29.311Z,2.72
2018-06-17T04:13:32.691Z,2.70
2018-06-17T04:14:35.786Z,2.50
2018-06-17T04:15:40.295Z,3.17
2018-06-17T04:16:43.715Z,2.60
2018-06-17T04:17:47.111Z,2.72
2018-06-17T04:18:50.491Z,2.67
2018-06-17T04:19:53.885Z,2.40
2018-06-17T04:20:58.602Z,2.60
2018-06-17T04:22:02.013Z,2.70
2018-06-17T04:23:05.279Z,2.77
2018-06-17T04:24:08.653Z,2.40
2018-06-17T04:25:13.111Z,2.62
2018-06-17T04:26:17.463Z,2.90
2018-06-17T04:27:20.890Z,2.55
2018-06-17T04:28:23.959Z,2.67
2018-06-17T04:29:27.375Z,3.22
2018-06-17T04:30:32.346Z,2.42
2018-06-17T04:31:35.475Z,2.40
2018-06-17T04:32:38.584Z,2.60
2018-06-17T04:33:41.955Z,2.60
2018-06-17T04:34:45.365Z,2.30
2018-06-17T04:35:49.734Z,2.65
2018-06-17T04:36:53.156Z,3.02
2018-06-17T04:37:56.546Z,2.85
2018-06-17T04:38:59.919Z,2.80
2018-06-17T04:40:03.586Z,2.67
2018-06-17T04:41:08.010Z,3.08
2018-06-17T04:42:11.431Z,3.22
2018-06-17T04:43:14.824Z,2.62
2018-06-17T04:44:18.211Z,3.08
2018-06-17T04:45:22.678Z,2.75
2018-06-17T04:46:27.359Z,2.77
2018-06-17T04:47:30.773Z,2.30
2018-06-17T04:48:34.217Z,2.58
2018-06-17T04:49:37.552Z,2.50
2018-06-17T04:50:41.955Z,2.25
2018-06-17T04:51:45.355Z,2.72
2018-06-17T04:52:48.734Z,2.50
2018-06-17T04:53:52.116Z,2.35
2018-06-17T04:54:55.611Z,2.90
2018-06-17T04:56:00.785Z,2.80
2018-06-17T04:57:04.216Z,2.65
2018-06-17T04:58:07.615Z,2.90
2018-06-17T04:59:11.003Z,2.30
2018-06-17T05:00:15.664Z,3.20
2018-06-17T05:01:20.205Z,3.15
2018-06-17T05:02:23.815Z,2.75
2018-06-17T05:03:27.200Z,2.52
2018-06-17T05:04:30.583Z,2.47
2018-06-17T05:05:35.796Z,3.02
2018-06-17T05:06:39.239Z,2.67
2018-06-17T05:07:42.623Z,2.62
2018-06-17T05:08:46.015Z,2.37
2018-06-17T05:09:49.407Z,2.52
2018-06-17T05:10:53.904Z,2.70
2018-06-17T05:11:57.304Z,2.60
2018-06-17T05:13:00.693Z,2.42
2018-06-17T05:14:04.075Z,2.72
2018-06-17T05:15:08.538Z,3.27
2018-06-17T05:16:13.094Z,2.50
2018-06-17T05:17:16.519Z,2.33
2018-06-17T05:18:19.908Z,2.50
2018-06-17T05:19:23.287Z,2.60
2018-06-17T05:20:27.680Z,2.30
2018-06-17T05:21:31.279Z,2.50
2018-06-17T05:22:34.358Z,2.80
2018-06-17T05:23:37.431Z,2.75
2018-06-17T05:24:40.819Z,2.55
2018-06-17T05:25:45.432Z,2.30
2018-06-17T05:26:48.545Z,2.45
2018-06-17T05:27:51.980Z,2.77
2018-06-17T05:28:55.379Z,2.67
2018-06-17T05:29:58.943Z,2.62
2018-06-17T05:31:03.474Z,2.80
2018-06-17T05:32:06.748Z,2.30
2018-06-17T05:33:10.202Z,2.60
2018-06-17T05:34:13.247Z,2.50
2018-06-17T05:35:17.131Z,2.45
2018-06-17T05:36:21.782Z,2.83
2018-06-17T05:37:25.207Z,2.30
2018-06-17T05:38:35.555Z,2.72
2018-06-17T05:39:38.936Z,2.55
2018-06-17T05:40:44.272Z,2.55
2018-06-17T05:41:47.696Z,2.58
2018-06-17T05:42:51.079Z,2.45
2018-06-17T05:43:54.154Z,2.40
2018-06-17T05:44:57.530Z,2.58
2018-06-17T05:46:02.216Z,2.60
2018-06-17T05:47:05.687Z,2.85
2018-06-17T05:48:09.191Z,2.55
2018-06-17T05:49:12.576Z,2.42
2018-06-17T05:50:17.347Z,2.90
2018-06-17T05:51:21.863Z,2.47
2018-06-17T05:52:24.964Z,2.40
2018-06-17T05:53:28.339Z,2.47
2018-06-17T05:54:31.724Z,2.58
2018-06-17T05:55:36.246Z,2.50
2018-06-17T05:56:39.652Z,2.55
2018-06-17T05:57:43.035Z,2.40
2018-06-17T05:58:46.415Z,2.27
2018-06-17T05:59:49.799Z,3.08
2018-06-17T06:00:54.947Z,2.77
2018-06-17T06:01:58.363Z,2.30
2018-06-17T06:03:01.744Z,2.50
2018-06-17T06:04:05.218Z,2.25
2018-06-17T06:05:09.602Z,2.55
2018-06-17T06:06:14.133Z,2.45
2018-06-17T06:07:17.582Z,2.33
2018-06-17T06:08:20.959Z,2.47
2018-06-17T06:09:24.346Z,2.50
2018-06-17T06:10:28.796Z,2.58
2018-06-17T06:11:31.927Z,2.30
2018-06-17T06:12:35.025Z,2.58
2018-06-17T06:13:38.404Z,2.62
2018-06-17T06:14:41.788Z,2.50
2018-06-17T06:15:46.708Z,2.70
2018-06-17T06:16:50.108Z,3.00
2018-06-17T06:17:53.504Z,2.30
2018-06-17T06:18:56.879Z,2.58
2018-06-17T06:20:00.264Z,2.10
2018-06-17T06:21:05.313Z,2.35
2018-06-17T06:22:08.723Z,2.50
2018-06-17T06:23:12.103Z,2.25
2018-06-17T06:24:15.483Z,2.30
2018-06-17T06:25:19.790Z,2.45
2018-06-17T06:26:23.333Z,2.60
2018-06-17T06:27:26.747Z,2.22
2018-06-17T06:28:30.123Z,2.33
2018-06-17T06:29:33.731Z,3.45
2018-06-17T06:30:44.633Z,2.22
2018-06-17T06:31:48.059Z,2.20
2018-06-17T06:32:51.460Z,2.15
2018-06-17T06:33:54.931Z,2.33
2018-06-17T06:34:58.651Z,2.50
2018-06-17T06:36:03.423Z,2.42
2018-06-17T06:37:06.856Z,2.55
2018-06-17T06:38:10.550Z,2.50
2018-06-17T06:39:13.943Z,2.40
2018-06-17T06:40:18.216Z,2.20
2018-06-17T06:41:22.637Z,2.20
2018-06-17T06:42:26.036Z,1.90
2018-06-17T06:43:29.419Z,2.20
2018-06-17T06:44:32.802Z,1.92
2018-06-17T06:45:37.350Z,2.22
2018-06-17T06:46:41.092Z,2.12
2018-06-17T06:47:44.491Z,2.10
2018-06-17T06:48:47.867Z,1.95
2018-06-17T06:49:51.279Z,2.30
2018-06-17T06:50:55.913Z,2.08
2018-06-17T06:51:59.287Z,2.85
2018-06-17T06:53:02.699Z,2.17
2018-06-17T06:54:05.782Z,2.35
2018-06-17T06:55:09.798Z,2.00
2018-06-17T06:56:15.423Z,2.22
2018-06-17T06:57:18.929Z,2.50
2018-06-17T06:58:22.084Z,2.58
2018-06-17T06:59:25.495Z,2.30
2018-06-17T07:00:30.056Z,2.25
2018-06-17T07:01:44.659Z,2.92
2018-06-17T07:02:59.382Z,2.30
2018-06-17T07:04:14.331Z,2.58
2018-06-17T07:05:29.540Z,2.12
2018-06-17T07:06:44.323Z,2.45
2018-06-17T07:07:58.995Z,2.35
2018-06-17T07:10:18.899Z,2.70
2018-06-17T07:11:23.130Z,2.37
2018-06-17T07:12:26.547Z,2.65
2018-06-17T07:13:29.943Z,2.95
2018-06-17T07:14:33.348Z,2.72
2018-06-17T07:15:48.666Z,2.60
2018-06-17T07:17:03.279Z,2.55
2018-06-17T07:18:18.107Z,2.27
2018-06-17T07:19:21.503Z,2.55
2018-06-17T07:20:25.924Z,2.42
2018-06-17T07:21:30.013Z,2.62
2018-06-17T07:22:33.383Z,2.42
2018-06-17T07:23:36.787Z,2.77
2018-06-17T07:24:40.356Z,2.65
2018-06-17T07:26:54.487Z,2.52
2018-06-17T07:29:28.699Z,2.70
2018-06-17T07:30:33.932Z,2.50
2018-06-17T07:31:37.731Z,2.10
2018-06-17T07:32:41.187Z,2.60
2018-06-17T07:33:44.237Z,2.17
2018-06-17T07:34:47.327Z,2.40
2018-06-17T07:35:51.039Z,2.58
2018-06-17T07:36:54.457Z,1.98
2018-06-17T07:37:57.836Z,2.27
2018-06-17T07:40:12.424Z,2.67
2018-06-17T07:41:17.023Z,2.30
2018-06-17T07:42:20.507Z,2.20
2018-06-17T07:43:23.893Z,2.10
2018-06-17T07:44:27.275Z,2.20
2018-06-17T07:45:31.706Z,2.22
2018-06-17T07:46:35.139Z,2.40
2018-06-17T07:47:38.528Z,2.30
2018-06-17T07:49:51.877Z,2.30
2018-06-17T07:51:07.502Z,1.98
2018-06-17T07:52:23.224Z,2.10
2018-06-17T07:53:26.620Z,2.40
2018-06-17T07:54:30.015Z,1.95
2018-06-17T07:55:34.432Z,2.30
2018-06-17T07:56:37.855Z,2.00
2018-06-17T07:57:41.279Z,2.20
2018-06-17T07:58:44.663Z,1.98
2018-06-17T07:59:48.091Z,2.27
2018-06-17T08:00:51.934Z,2.05
2018-06-17T08:01:55.383Z,2.50
2018-06-17T08:02:58.454Z,2.40
2018-06-17T08:04:01.535Z,2.70
2018-06-17T08:05:05.822Z,2.47
2018-06-17T08:06:09.566Z,1.95
2018-06-17T08:07:13.001Z,2.70
2018-06-17T08:08:16.397Z,2.25
2018-06-17T08:09:19.783Z,2.75
2018-06-17T08:10:24.198Z,2.40
2018-06-17T08:11:29.287Z,2.30
2018-06-17T08:12:32.687Z,2.33
2018-06-17T08:13:36.083Z,2.22
2018-06-17T08:14:39.692Z,2.65
2018-06-17T08:15:44.102Z,2.30
2018-06-17T08:16:47.523Z,2.72
2018-06-17T08:17:50.936Z,2.67
2018-06-17T08:18:54.316Z,2.55
2018-06-17T08:19:57.691Z,2.52
2018-06-17T08:21:02.149Z,2.47
2018-06-17T08:22:05.563Z,2.50
2018-06-17T08:23:08.969Z,2.52
2018-06-17T08:24:12.476Z,2.65
2018-06-17T08:25:16.854Z,2.70
2018-06-17T08:26:22.307Z,2.40
2018-06-17T08:27:25.739Z,2.20
2018-06-17T08:28:29.171Z,2.20
2018-06-17T08:29:32.599Z,2.40
2018-06-17T08:30:36.911Z,2.22
2018-06-17T08:31:40.475Z,2.30
2018-06-17T08:32:43.893Z,2.62
2018-06-17T08:33:47.291Z,2.25
2018-06-17T08:34:50.371Z,2.20
2018-06-17T08:35:54.374Z,2.45
2018-06-17T08:36:57.799Z,2.27
2018-06-17T08:38:01.188Z,2.35
2018-06-17T08:39:07.751Z,2.17
2018-06-17T08:40:12.208Z,2.50
2018-06-17T08:41:16.693Z,2.25
2018-06-17T08:42:20.119Z,1.98
2018-06-17T08:43:23.198Z,2.33
2018-06-17T08:44:26.287Z,2.67
2018-06-17T08:45:30.744Z,2.80
2018-06-17T08:46:34.140Z,2.47
2018-06-17T08:47:37.564Z,2.75
2018-06-17T08:48:40.972Z,3.58
2018-06-17T08:49:44.379Z,2.77
2018-06-17T08:50:50.463Z,2.83
2018-06-17T08:51:53.895Z,2.58
2018-06-17T08:52:57.307Z,2.77
2018-06-17T08:54:00.711Z,2.47
2018-06-17T08:55:04.670Z,2.55
2018-06-17T08:56:09.738Z,2.75
2018-06-17T08:57:12.838Z,2.98
2018-06-17T08:58:16.225Z,2.75
2018-06-17T08:59:19.603Z,2.60
2018-06-17T09:00:31.279Z,2.67
2018-06-17T09:01:34.379Z,2.35
2018-06-17T09:02:37.786Z,2.90
2018-06-17T09:03:44.173Z,3.10
2018-06-17T09:04:47.556Z,2.33
2018-06-17T09:05:51.958Z,2.92
2018-06-17T09:06:55.367Z,2.52
2018-06-17T09:07:58.745Z,2.80
2018-06-17T09:09:02.124Z,2.30
2018-06-17T09:10:06.434Z,3.02
2018-06-17T09:11:11.831Z,3.00
2018-06-17T09:12:15.237Z,2.92
2018-06-17T09:13:18.631Z,2.33
2018-06-17T09:14:22.011Z,2.80
2018-06-17T09:15:26.933Z,2.50
2018-06-17T09:16:30.967Z,2.80
2018-06-17T09:17:34.347Z,2.98
2018-06-17T09:18:37.731Z,2.92
2018-06-17T09:19:41.119Z,2.08
2018-06-17T09:20:45.602Z,2.33
2018-06-17T09:21:49.007Z,2.85
2018-06-17T09:22:52.647Z,2.33
2018-06-17T09:23:56.019Z,2.55
2018-06-17T09:24:59.404Z,3.00
2018-06-17T09:26:04.190Z,2.30
2018-06-17T09:27:07.591Z,2.37
2018-06-17T09:28:11.135Z,2.25
2018-06-17T09:29:14.507Z,2.80
2018-06-17T09:30:19.031Z,2.65
2018-06-17T09:31:23.291Z,3.47
2018-06-17T09:32:26.675Z,2.30
2018-06-17T09:33:30.231Z,2.15
2018-06-17T09:34:33.611Z,2.52
2018-06-17T09:35:38.197Z,2.52
2018-06-17T09:36:41.592Z,2.52
2018-06-17T09:37:45.004Z,2.65
2018-06-17T09:38:48.384Z,2.60
2018-06-17T09:39:51.771Z,2.25
2018-06-17T09:40:56.262Z,2.58
2018-06-17T09:41:59.675Z,2.40
2018-06-17T09:43:03.066Z,2.47
2018-06-17T09:44:06.471Z,2.40
2018-06-17T09:45:11.787Z,2.52
2018-06-17T09:46:16.229Z,2.17
2018-06-17T09:47:19.644Z,2.37
2018-06-17T09:48:23.033Z,2.30
2018-06-17T09:49:26.515Z,2.55
2018-06-17T09:50:31.055Z,3.37
2018-06-17T09:51:34.503Z,2.55
2018-06-17T09:52:37.883Z,2.90
2018-06-17T09:53:41.269Z,2.90
2018-06-17T09:54:44.338Z,2.40
2018-06-17T09:55:48.172Z,2.65
2018-06-17T09:56:51.571Z,2.47
2018-06-17T09:57:54.962Z,2.67
2018-06-17T09:58:58.335Z,2.20
2018-06-17T10:00:01.731Z,2.30
2018-06-17T10:01:06.531Z,2.25
2018-06-17T10:02:09.939Z,2.85
2018-06-17T10:03:13.307Z,2.20
2018-06-17T10:04:16.727Z,2.25
2018-06-17T10:05:21.066Z,2.60
2018-06-17T10:06:25.495Z,2.65
2018-06-17T10:07:28.899Z,2.77
2018-06-17T10:08:32.273Z,2.40
2018-06-17T10:09:46.849Z,2.40
2018-06-17T10:10:58.585Z,2.55
2018-06-17T10:12:01.991Z,2.62
2018-06-17T10:13:05.392Z,2.45
2018-06-17T10:14:08.767Z,2.70
2018-06-17T10:15:13.311Z,2.90
2018-06-17T10:16:17.387Z,2.30
2018-06-17T10:17:20.784Z,2.27
2018-06-17T10:18:24.696Z,2.30
2018-06-17T10:19:28.067Z,2.50
2018-06-17T10:20:32.440Z,2.45
2018-06-17T10:21:35.852Z,2.80
2018-06-17T10:22:39.232Z,2.70
2018-06-17T10:23:42.620Z,2.83
2018-06-17T10:24:45.995Z,2.55
2018-06-17T10:25:50.445Z,2.30
2018-06-17T10:26:53.868Z,2.40
2018-06-17T10:27:56.947Z,2.15
2018-06-17T10:29:00.032Z,2.17
2018-06-17T10:30:03.966Z,2.30
2018-06-17T10:31:08.579Z,1.95
2018-06-17T10:32:11.995Z,2.42
2018-06-17T10:33:15.488Z,2.30
2018-06-17T10:34:18.875Z,2.55
2018-06-17T10:35:23.451Z,2.22
2018-06-17T10:36:28.921Z,2.85
2018-06-17T10:37:32.311Z,2.42
2018-06-17T10:38:35.691Z,2.40
2018-06-17T10:39:39.079Z,2.42
2018-06-17T10:40:43.456Z,2.80
2018-06-17T10:41:46.933Z,2.50
2018-06-17T10:42:50.307Z,2.72
2018-06-17T10:43:53.399Z,3.00
2018-06-17T10:44:56.771Z,2.70
2018-06-17T10:46:01.235Z,2.45
2018-06-17T10:47:04.367Z,2.62
2018-06-17T10:48:07.606Z,2.30
2018-06-17T10:49:10.999Z,2.33
2018-06-17T10:50:15.518Z,2.45
2018-06-17T10:51:20.171Z,2.10
2018-06-17T10:52:23.567Z,2.65
2018-06-17T10:53:26.954Z,2.40
2018-06-17T10:54:30.767Z,2.45
2018-06-17T10:55:35.160Z,2.20
2018-06-17T10:56:38.587Z,2.42
2018-06-17T10:57:42.269Z,2.47
2018-06-17T10:58:45.658Z,2.33
2018-06-17T10:59:49.047Z,2.50
2018-06-17T11:00:53.368Z,2.15
2018-06-17T11:01:56.794Z,2.47
2018-06-17T11:03:00.225Z,2.20
2018-06-17T11:04:03.607Z,2.25
2018-06-17T11:05:08.632Z,2.47
2018-06-17T11:06:13.212Z,2.33
2018-06-17T11:07:16.631Z,2.45
2018-06-17T11:08:20.005Z,2.67
2018-06-17T11:09:23.384Z,2.40
2018-06-17T11:10:28.708Z,2.77
2018-06-17T11:11:32.208Z,2.50
2018-06-17T11:12:35.903Z,2.67
2018-06-17T11:13:39.279Z,2.70
2018-06-17T11:14:42.803Z,2.67
2018-06-17T11:15:47.316Z,2.33
2018-06-17T11:16:50.723Z,2.95
2018-06-17T11:17:53.803Z,2.30
2018-06-17T11:18:56.882Z,2.27
2018-06-17T11:19:59.963Z,2.17
2018-06-17T11:21:03.813Z,2.70
2018-06-17T11:22:07.464Z,3.00
2018-06-17T11:23:10.863Z,2.70
2018-06-17T11:24:14.249Z,2.60
2018-06-17T11:25:18.767Z,3.20
2018-06-17T11:26:23.226Z,2.80
2018-06-17T11:27:26.649Z,2.87
2018-06-17T11:28:29.724Z,4.37
2018-06-17T11:29:32.794Z,2.90
2018-06-17T11:30:37.375Z,2.17
2018-06-17T11:31:40.783Z,2.62
2018-06-17T11:32:43.859Z,4.40
2018-06-17T11:33:51.249Z,2.55
2018-06-17T11:34:54.322Z,2.77
2018-06-17T11:35:58.904Z,2.60
2018-06-17T11:37:02.339Z,2.80
2018-06-17T11:38:05.723Z,2.30
2018-06-17T11:39:09.954Z,2.50
2018-06-17T11:40:14.327Z,2.80
2018-06-17T11:41:18.914Z,2.30
2018-06-17T11:42:22.349Z,2.40
2018-06-17T11:43:25.724Z,2.47
2018-06-17T11:44:29.099Z,1.90
2018-06-17T11:45:34.454Z,2.27
2018-06-17T11:46:37.870Z,2.52
2018-06-17T11:47:41.272Z,2.30
2018-06-17T11:48:44.655Z,2.37
2018-06-17T11:49:48.028Z,1.90
2018-06-17T11:50:52.510Z,2.72
2018-06-17T11:51:55.932Z,2.17
2018-06-17T11:52:59.363Z,1.90
2018-06-17T11:54:02.746Z,2.58
2018-06-17T11:55:06.674Z,2.00
2018-06-17T11:56:11.983Z,2.12
2018-06-17T11:57:15.432Z,2.15
2018-06-17T11:58:18.811Z,2.33
2018-06-17T11:59:22.199Z,1.95
2018-06-17T12:00:26.684Z,2.20
2018-06-17T12:01:30.235Z,2.10
2018-06-17T12:02:33.664Z,1.95
2018-06-17T12:03:37.034Z,2.08
2018-06-17T12:04:40.423Z,2.20
2018-06-17T12:05:44.779Z,2.02
2018-06-17T12:06:47.904Z,2.37
2018-06-17T12:07:51.311Z,2.67
2018-06-17T12:08:54.907Z,2.10
2018-06-17T12:09:58.286Z,2.45
2018-06-17T12:11:02.825Z,2.70
2018-06-17T12:12:05.939Z,3.17
2018-06-17T12:13:09.011Z,2.50
2018-06-17T12:14:12.117Z,2.67
2018-06-17T12:15:17.282Z,2.12
2018-06-17T12:16:21.747Z,1.90
2018-06-17T12:17:25.147Z,2.05
2018-06-17T12:18:28.583Z,2.72
2018-06-17T12:19:31.967Z,2.20
2018-06-17T12:20:36.567Z,2.12
2018-06-17T12:21:39.991Z,2.12
2018-06-17T12:22:43.415Z,2.45
2018-06-17T12:23:46.832Z,2.12
2018-06-17T12:24:50.223Z,2.30
2018-06-17T12:25:54.710Z,2.05
2018-06-17T12:26:58.138Z,2.10
2018-06-17T12:28:01.517Z,2.00
2018-06-17T12:29:04.908Z,2.12
2018-06-17T12:30:09.355Z,2.10
2018-06-17T12:31:14.214Z,2.33
2018-06-17T12:32:17.342Z,2.05
2018-06-17T12:33:20.430Z,2.60
2018-06-17T12:34:23.813Z,2.70
2018-06-17T12:35:28.311Z,2.30
2018-06-17T12:36:31.796Z,1.90
2018-06-17T12:37:35.187Z,2.52
2018-06-17T12:38:38.823Z,2.42
2018-06-17T12:39:42.201Z,2.25
2018-06-17T12:40:47.310Z,2.45
2018-06-17T12:41:50.776Z,1.82
2018-06-17T12:42:54.171Z,1.77
2018-06-17T12:43:57.556Z,2.02
2018-06-17T12:45:00.942Z,2.12
2018-06-17T12:46:05.988Z,1.90
2018-06-17T12:47:09.403Z,2.10
2018-06-17T12:48:12.816Z,2.35
2018-06-17T12:49:16.199Z,1.90
2018-06-17T12:50:20.593Z,2.00
2018-06-17T12:51:25.145Z,1.70
2018-06-17T12:52:28.653Z,2.40
2018-06-17T12:53:32.056Z,1.77
2018-06-17T12:54:35.431Z,1.95
2018-06-17T12:55:39.972Z,1.92
2018-06-17T12:56:43.364Z,2.12
2018-06-17T12:57:46.800Z,2.00
2018-06-17T12:58:49.871Z,1.82
2018-06-17T12:59:53.287Z,1.98
2018-06-17T13:00:58.260Z,1.92
2018-06-17T13:02:01.691Z,1.95
2018-06-17T13:03:05.111Z,2.00
2018-06-17T13:04:08.508Z,2.00
2018-06-17T13:05:12.825Z,1.62
2018-06-17T13:06:17.825Z,1.90
2018-06-17T13:07:20.931Z,1.90
2018-06-17T13:08:24.315Z,2.42
2018-06-17T13:09:27.724Z,1.87
2018-06-17T13:10:31.509Z,2.27
2018-06-17T13:11:34.595Z,2.47
2018-06-17T13:12:38.049Z,1.87
2018-06-17T13:13:41.423Z,1.90
2018-06-17T13:14:44.839Z,1.95
2018-06-17T13:15:49.284Z,1.72
2018-06-17T13:16:52.756Z,2.08
2018-06-17T13:17:56.151Z,3.33
2018-06-17T13:18:59.531Z,2.17
2018-06-17T13:20:03.013Z,2.50
2018-06-17T13:21:07.421Z,2.00
2018-06-17T13:22:10.814Z,1.87
2018-06-17T13:23:14.191Z,1.67
2018-06-17T13:24:17.312Z,2.37
2018-06-17T13:25:21.748Z,2.05
2018-06-17T13:26:25.704Z,2.47
2018-06-17T13:27:29.168Z,1.62
2018-06-17T13:28:32.524Z,1.95
2018-06-17T13:29:35.899Z,1.85
2018-06-17T13:30:40.475Z,1.72
2018-06-17T13:31:43.875Z,1.65
2018-06-17T13:32:47.255Z,1.98
2018-06-17T13:33:50.639Z,1.80
2018-06-17T13:35:00.530Z,1.55
2018-06-17T13:36:05.113Z,1.62
2018-06-17T13:37:08.547Z,1.70
2018-06-17T13:38:11.944Z,2.05
2018-06-17T13:39:15.035Z,2.10
2018-06-17T13:40:19.415Z,1.87
2018-06-17T13:41:23.639Z,2.00
2018-06-17T13:42:27.067Z,1.70
2018-06-17T13:43:30.451Z,2.15
2018-06-17T13:44:33.888Z,1.47
2018-06-17T13:45:38.429Z,1.72
2018-06-17T13:46:41.891Z,1.75
2018-06-17T13:47:45.267Z,1.98
2018-06-17T13:48:48.647Z,1.92
2018-06-17T13:51:02.521Z,2.05
2018-06-17T13:52:05.951Z,1.98
2018-06-17T13:53:09.335Z,2.17
2018-06-17T13:54:12.915Z,2.10
2018-06-17T13:55:17.293Z,1.90
2018-06-17T13:56:21.758Z,2.05
2018-06-17T13:57:25.179Z,2.00
2018-06-17T13:58:28.572Z,1.90
2018-06-17T13:59:31.945Z,2.00
2018-06-17T14:00:36.892Z,1.72
2018-06-17T14:01:40.307Z,1.95
2018-06-17T14:02:43.735Z,1.50
2018-06-17T14:03:47.143Z,1.87
2018-06-17T14:04:51.075Z,2.42
2018-06-17T14:05:55.581Z,2.60
2018-06-17T14:06:58.995Z,1.90
2018-06-17T14:08:02.391Z,2.58
2018-06-17T14:09:07.021Z,4.03
2018-06-17T14:10:11.621Z,4.83
2018-06-17T14:11:16.262Z,5.05
2018-06-17T14:12:19.671Z,8.40
2018-06-17T14:13:23.129Z,4.37
2018-06-17T14:14:26.491Z,2.30
2018-06-17T14:15:31.152Z,5.33
2018-06-17T14:16:34.603Z,2.70
2018-06-17T14:17:38.003Z,6.33
2018-06-17T14:18:41.434Z,2.08
2018-06-17T14:19:44.799Z,1.85
2018-06-17T14:20:49.157Z,2.42
2018-06-17T14:21:52.817Z,1.85